Robeline, Louisiana
Current Conditions -  °F | °C
As of 8:55 AM on Monday 24 Nov 2014 (Local Time) from KIER Reporting Station
Clear Clear  
Wind Chill: 12°   Ceiling: Unl
Heat Index: 12°   Visibility: 10mi
Dew Point:   Wind: 12mph
Humidity: 68%   Direction: 320°NW
Pressure: 29.99"   Gusts: 16mph
Location:  31.69°N, 93.3°W
Report Text: KIER 241455Z AUTO 32010G14KT 10SM CLR 12/06 A2999 RMK AO2 T01190061
Loading
Personal Weather Stations






























Interactive Weather Map New forecast layout! Learn more

10-Day Weather Forecast

Advertisements
Track Severe Weather on mobile